Time;durP1;ratioP1;P1;durP2;ratioP2;P2;SDS_P1;SDS_P2;PMS_P1;PMS_P2;Temp;Humidity;BMP_temperature;BMP_pressure;BME280_temperature;BME280_humidity;BME280_pressure;Samples;Min_cycle;Max_cycle;Signal;HPM_P1;HPM_P2
2022/11/10 00:01:31;;;;;;;39.45;19.83;;;;;;;;;;5013274;28;20219;-78
2022/11/10 00:03:57;;;;;;;42.75;19.75;;;;;;;;;;5013049;28;20026;-78
2022/11/10 00:06:23;;;;;;;41.50;19.08;;;;;;;;;;5012805;28;20021;-77
2022/11/10 00:08:48;;;;;;;37.53;19.40;;;;;;;;;;5012153;28;20419;-78
2022/11/10 00:11:14;;;;;;;43.15;19.65;;;;;;;;;;5012575;28;20033;-78
2022/11/10 00:19:08;;;;;;;40.78;19.42;;;;;;;;;;5012511;28;20168;-76
2022/11/10 00:21:35;;;;;;;42.45;18.83;;;;;;;;;;5010582;28;20117;-78
2022/11/10 00:24:02;;;;;;;44.80;21.10;;;;;;;;;;5010946;28;20026;-77
2022/11/10 00:26:28;;;;;;;41.95;19.35;;;;;;;;;;5012040;28;20418;-77
2022/11/10 00:28:54;;;;;;;39.47;21.08;;;;;;;;;;5012047;28;20040;-78
2022/11/10 00:31:20;;;;;;;46.03;21.05;;;;;;;;;;5012330;28;20057;-77
2022/11/10 00:33:45;;;;;;;45.30;20.42;;;;;;;;;;5012004;28;20029;-78
2022/11/10 00:36:11;;;;;;;41.75;19.70;;;;;;;;;;5012362;28;20022;-77
2022/11/10 00:38:37;;;;;;;45.28;20.10;;;;;;;;;;5012177;28;20104;-77
2022/11/10 00:41:03;;;;;;;42.22;19.35;;;;;;;;;;5011761;28;20125;-77
2022/11/10 00:43:29;;;;;;;46.78;20.58;;;;;;;;;;5012298;28;20386;-76
2022/11/10 00:45:54;;;;;;;41.97;20.00;;;;;;;;;;5012606;28;20040;-77
2022/11/10 00:48:20;;;;;;;44.60;21.25;;;;;;;;;;5009492;28;20032;-77
2022/11/10 00:50:46;;;;;;;42.67;20.60;;;;;;;;;;5011958;28;20032;-76
2022/11/10 00:53:11;;;;;;;42.13;21.48;;;;;;;;;;5011953;28;20070;-78
2022/11/10 00:55:38;;;;;;;44.45;21.20;;;;;;;;;;5011984;28;20060;-77
2022/11/10 00:58:03;;;;;;;41.58;21.25;;;;;;;;;;5010847;28;20098;-76
2022/11/10 01:00:30;;;;;;;42.28;20.65;;;;;;;;;;5010300;28;20034;-79
2022/11/10 01:02:56;;;;;;;38.63;19.60;;;;;;;;;;5009664;28;20038;-78
2022/11/10 01:05:21;;;;;;;41.05;20.88;;;;;;;;;;5010952;28;20133;-77
2022/11/10 01:07:47;;;;;;;44.75;21.92;;;;;;;;;;5011728;28;20436;-77
2022/11/10 01:10:12;;;;;;;44.33;20.85;;;;;;;;;;5010842;28;20053;-76
2022/11/10 01:12:38;;;;;;;45.90;20.23;;;;;;;;;;5011462;28;20030;-78
2022/11/10 01:15:04;;;;;;;42.75;20.42;;;;;;;;;;5012363;28;20026;-77
2022/11/10 01:17:30;;;;;;;43.28;20.63;;;;;;;;;;5012348;28;20037;-77
2022/11/10 01:19:55;;;;;;;43.83;20.65;;;;;;;;;;5012060;28;20506;-77
2022/11/10 01:22:21;;;;;;;43.97;21.58;;;;;;;;;;5011378;28;20395;-78
2022/11/10 01:24:47;;;;;;;36.92;19.27;;;;;;;;;;5010009;28;20022;-78
2022/11/10 01:27:12;;;;;;;43.13;20.10;;;;;;;;;;5011596;28;20037;-77
2022/11/10 01:29:37;;;;;;;39.97;19.95;;;;;;;;;;5011125;28;20052;-76
2022/11/10 01:32:03;;;;;;;41.78;20.33;;;;;;;;;;5011915;28;20022;-77
2022/11/10 01:34:29;;;;;;;40.33;20.67;;;;;;;;;;5010734;28;20357;-78
2022/11/10 01:36:54;;;;;;;39.67;19.55;;;;;;;;;;5013080;28;20076;-76
2022/11/10 01:39:19;;;;;;;43.47;19.90;;;;;;;;;;5011218;28;20030;-77
2022/11/10 01:41:45;;;;;;;40.38;19.30;;;;;;;;;;5010512;28;20026;-78
2022/11/10 01:44:16;;;;;;;41.28;20.60;;;;;;;;;;5011029;28;20143;-77
2022/11/10 01:46:41;;;;;;;44.63;20.05;;;;;;;;;;5011027;28;20073;-77
2022/11/10 01:49:08;;;;;;;42.55;19.50;;;;;;;;;;5010331;28;20033;-77
2022/11/10 01:51:46;;;;;;;38.72;18.30;;;;;;;;;;5011199;28;20552;-78
2022/11/10 01:54:21;;;;;;;40.75;18.92;;;;;;;;;;5009940;28;20057;-78
2022/11/10 01:56:51;;;;;;;43.63;20.85;;;;;;;;;;5009976;28;20291;-76
2022/11/10 01:59:27;;;;;;;39.33;19.15;;;;;;;;;;5010843;28;20030;-77
2022/11/10 02:02:00;;;;;;;36.63;19.58;;;;;;;;;;5046490;28;20030;-76
2022/11/10 02:04:26;;;;;;;43.50;19.52;;;;;;;;;;5013115;28;20029;-76
2022/11/10 02:06:53;;;;;;;41.78;18.95;;;;;;;;;;5013253;28;20032;-76
2022/11/10 02:09:19;;;;;;;38.33;18.75;;;;;;;;;;5013558;28;20121;-76
2022/11/10 02:11:45;;;;;;;43.83;18.08;;;;;;;;;;5014628;28;20444;-78
2022/11/10 02:14:12;;;;;;;36.95;18.70;;;;;;;;;;5015444;28;20022;-76
2022/11/10 02:16:39;;;;;;;40.45;19.35;;;;;;;;;;5047168;28;20021;-77
2022/11/10 02:19:21;;;;;;;41.45;19.02;;;;;;;;;;5013951;28;20022;-76
2022/11/10 02:21:46;;;;;;;;;;;;;;;;;;5014386;28;20017;-75
2022/11/10 02:24:13;;;;;;;40.45;18.25;;;;;;;;;;5015286;28;20288;-76
2022/11/10 02:26:48;;;;;;;38.63;18.50;;;;;;;;;;5001251;28;20026;-79
2022/11/10 02:29:14;;;;;;;38.67;17.15;;;;;;;;;;4995430;28;20034;-78
2022/11/10 02:31:40;;;;;;;43.88;18.35;;;;;;;;;;4993718;28;20475;-78
2022/11/10 02:34:05;;;;;;;41.20;19.25;;;;;;;;;;4994524;28;20022;-79
2022/11/10 02:36:31;;;;;;;36.75;19.40;;;;;;;;;;4995285;28;20331;-77
2022/11/10 02:38:57;;;;;;;39.42;18.45;;;;;;;;;;4995031;28;20062;-77
2022/11/10 02:41:23;;;;;;;41.70;18.17;;;;;;;;;;4994139;28;20081;-78
2022/11/10 02:43:50;;;;;;;39.97;18.20;;;;;;;;;;4995176;28;20022;-77
2022/11/10 02:46:15;;;;;;;36.53;17.88;;;;;;;;;;4995887;28;20108;-78
2022/11/10 02:48:40;;;;;;;42.78;20.08;;;;;;;;;;4993329;28;20490;-77
2022/11/10 02:51:06;;;;;;;40.45;18.67;;;;;;;;;;4994859;28;20058;-77
2022/11/10 02:53:31;;;;;;;36.53;18.23;;;;;;;;;;4993422;28;20073;-78
2022/11/10 02:55:57;;;;;;;34.75;18.25;;;;;;;;;;4994863;28;20027;-77
2022/11/10 02:58:23;;;;;;;40.78;18.15;;;;;;;;;;4993611;28;20030;-79
2022/11/10 03:00:50;;;;;;;34.55;17.70;;;;;;;;;;4994801;28;20029;-78
2022/11/10 03:03:16;;;;;;;34.35;17.40;;;;;;;;;;4994713;28;20030;-77
2022/11/10 03:05:41;;;;;;;34.58;16.15;;;;;;;;;;4994433;28;20022;-79
2022/11/10 03:08:06;;;;;;;30.67;16.48;;;;;;;;;;4994157;28;20037;-78
2022/11/10 03:10:32;;;;;;;28.33;16.50;;;;;;;;;;4993455;28;20319;-78
2022/11/10 03:13:00;;;;;;;31.58;16.00;;;;;;;;;;4993691;28;20057;-77
2022/11/10 03:15:26;;;;;;;33.03;16.35;;;;;;;;;;4995081;28;20480;-76
2022/11/10 03:17:52;;;;;;;35.65;16.27;;;;;;;;;;4993406;28;20045;-77
2022/11/10 03:20:18;;;;;;;29.52;15.77;;;;;;;;;;4993758;28;20034;-76
2022/11/10 03:22:44;;;;;;;34.30;16.48;;;;;;;;;;4992669;28;20034;-80
2022/11/10 03:25:10;;;;;;;27.60;15.65;;;;;;;;;;4978087;28;20487;-76
2022/11/10 03:27:35;;;;;;;34.03;14.98;;;;;;;;;;5012639;28;20021;-78
2022/11/10 03:30:02;;;;;;;37.30;16.65;;;;;;;;;;5011948;28;20028;-77
2022/11/10 03:32:27;;;;;;;24.23;14.27;;;;;;;;;;5013603;28;20386;-77
2022/11/10 03:34:53;;;;;;;26.85;15.07;;;;;;;;;;5014024;28;20026;-78
2022/11/10 03:37:18;;;;;;;26.63;14.88;;;;;;;;;;5012363;28;20026;-77
2022/11/10 03:39:44;;;;;;;27.83;16.10;;;;;;;;;;5012416;28;20064;-76
2022/11/10 03:42:09;;;;;;;28.88;15.27;;;;;;;;;;5012494;28;20026;-77
2022/11/10 03:44:35;;;;;;;36.95;18.85;;;;;;;;;;5007500;28;20053;-78
2022/11/10 03:47:02;;;;;;;29.88;15.38;;;;;;;;;;4992797;28;20090;-77
2022/11/10 03:49:28;;;;;;;27.80;14.52;;;;;;;;;;4993930;28;20475;-76
2022/11/10 03:51:54;;;;;;;28.98;14.77;;;;;;;;;;5008373;28;20026;-79
2022/11/10 03:54:19;;;;;;;27.70;14.07;;;;;;;;;;4992951;28;20455;-77
2022/11/10 03:56:45;;;;;;;27.85;15.48;;;;;;;;;;4993416;28;20038;-78
2022/11/10 03:59:10;;;;;;;30.83;15.48;;;;;;;;;;4994313;28;20042;-77
2022/11/10 04:01:35;;;;;;;28.17;14.18;;;;;;;;;;4994423;28;20033;-78
2022/11/10 04:04:01;;;;;;;29.05;16.10;;;;;;;;;;4993911;28;20057;-77
2022/11/10 04:09:10;;;;;;;32.03;17.23;;;;;;;;;;4993533;28;20049;-77
2022/11/10 04:17:05;;;;;;;30.30;15.85;;;;;;;;;;4994532;28;20116;-76
2022/11/10 04:19:31;;;;;;;32.33;15.60;;;;;;;;;;5008541;28;20041;-77
2022/11/10 04:21:57;;;;;;;30.23;15.25;;;;;;;;;;4993520;28;20069;-76
2022/11/10 04:24:22;;;;;;;35.00;15.68;;;;;;;;;;4992887;28;20038;-77
2022/11/10 04:26:48;;;;;;;28.20;15.50;;;;;;;;;;5007415;28;20096;-78
2022/11/10 04:29:16;;;;;;;28.23;14.70;;;;;;;;;;4991190;28;20079;-77
2022/11/10 04:31:42;;;;;;;29.65;15.10;;;;;;;;;;4992626;28;20027;-77
2022/11/10 04:34:10;;;;;;;29.02;15.60;;;;;;;;;;4992420;28;20022;-78
2022/11/10 04:36:37;;;;;;;27.98;14.70;;;;;;;;;;4993104;28;20038;-78
2022/11/10 04:39:05;;;;;;;28.27;15.60;;;;;;;;;;4993586;28;20076;-78
2022/11/10 04:41:31;;;;;;;29.02;15.15;;;;;;;;;;4992902;28;20561;-78
2022/11/10 04:43:57;;;;;;;31.70;15.65;;;;;;;;;;4991081;28;20051;-77
2022/11/10 04:46:28;;;;;;;27.17;14.32;;;;;;;;;;4992805;28;20034;-77
2022/11/10 04:48:55;;;;;;;32.80;15.48;;;;;;;;;;4992774;28;20030;-77
2022/11/10 04:51:22;;;;;;;25.65;15.43;;;;;;;;;;4990707;28;20030;-77
2022/11/10 04:53:48;;;;;;;27.08;15.13;;;;;;;;;;4991767;28;20101;-77
2022/11/10 04:56:15;;;;;;;31.17;15.68;;;;;;;;;;4992686;28;20034;-78
2022/11/10 04:58:41;;;;;;;31.88;16.15;;;;;;;;;;4992305;28;20145;-78
2022/11/10 05:01:10;;;;;;;34.58;15.13;;;;;;;;;;4991926;28;20490;-78
2022/11/10 05:03:36;;;;;;;27.13;15.63;;;;;;;;;;4991008;28;20037;-77
2022/11/10 05:06:01;;;;;;;25.63;14.52;;;;;;;;;;4992443;28;20387;-79
2022/11/10 05:08:26;;;;;;;27.90;15.00;;;;;;;;;;4991657;28;20026;-79
2022/11/10 05:10:52;;;;;;;29.55;15.63;;;;;;;;;;4992298;28;20061;-77
2022/11/10 05:13:17;;;;;;;24.80;15.38;;;;;;;;;;4991630;28;20021;-76
2022/11/10 05:15:44;;;;;;;28.73;15.60;;;;;;;;;;4992090;28;20084;-78
2022/11/10 05:18:09;;;;;;;30.75;16.55;;;;;;;;;;4991671;28;20486;-77
2022/11/10 05:20:35;;;;;;;33.03;15.93;;;;;;;;;;4990797;28;20030;-76
2022/11/10 05:25:44;;;;;;;30.02;14.18;;;;;;;;;;4998259;28;20029;-77
2022/11/10 05:28:11;;;;;;;29.45;14.80;;;;;;;;;;5010811;28;20030;-77
2022/11/10 05:30:37;;;;;;;26.02;14.07;;;;;;;;;;5043665;28;20486;-78
2022/11/10 05:33:04;;;;;;;24.02;14.60;;;;;;;;;;5010374;28;20110;-78
2022/11/10 05:35:30;;;;;;;26.48;14.70;;;;;;;;;;5013609;28;20053;-78
2022/11/10 05:37:56;;;;;;;29.48;15.48;;;;;;;;;;5014282;28;20033;-79
2022/11/10 05:40:21;;;;;;;25.63;14.77;;;;;;;;;;5013998;28;20445;-78
2022/11/10 05:42:53;;;;;;;29.77;15.30;;;;;;;;;;5015944;28;20473;-78
2022/11/10 05:45:21;;;;;;;27.67;14.45;;;;;;;;;;5015930;28;20500;-78
2022/11/10 05:47:47;;;;;;;29.60;14.57;;;;;;;;;;5030415;28;20505;-78
2022/11/10 05:50:12;;;;;;;30.75;14.85;;;;;;;;;;5014112;28;20030;-78
2022/11/10 05:52:46;;;;;;;31.17;14.75;;;;;;;;;;5046982;28;20034;-78
2022/11/10 05:55:13;;;;;;;27.15;15.68;;;;;;;;;;5014875;28;20018;-79
2022/11/10 05:57:44;;;;;;;26.92;15.48;;;;;;;;;;5013136;28;20030;-78
2022/11/10 06:00:12;;;;;;;29.17;14.75;;;;;;;;;;5046926;28;20159;-77
2022/11/10 06:02:37;;;;;;;27.02;15.23;;;;;;;;;;5014459;28;20369;-78
2022/11/10 06:05:03;;;;;;;31.00;17.05;;;;;;;;;;5014436;28;20091;-77
2022/11/10 06:07:29;;;;;;;33.55;17.48;;;;;;;;;;5046309;28;20061;-78
2022/11/10 06:09:54;;;;;;;27.27;14.23;;;;;;;;;;5013248;28;20497;-77
2022/11/10 06:12:20;;;;;;;28.17;14.88;;;;;;;;;;5021512;28;20033;-78
2022/11/10 06:14:46;;;;;;;31.92;15.40;;;;;;;;;;5005298;28;20025;-77
2022/11/10 06:17:12;;;;;;;28.88;15.82;;;;;;;;;;5024816;28;20083;-78
2022/11/10 06:19:38;;;;;;;30.00;16.00;;;;;;;;;;5020927;28;20027;-76
2022/11/10 06:22:04;;;;;;;30.05;16.50;;;;;;;;;;5015791;28;20029;-79
2022/11/10 06:24:29;;;;;;;35.33;17.38;;;;;;;;;;5021614;28;20025;-78
2022/11/10 06:26:54;;;;;;;32.17;15.90;;;;;;;;;;5030429;28;20083;-77
2022/11/10 06:29:20;;;;;;;30.40;15.27;;;;;;;;;;5030164;28;20025;-78
2022/11/10 06:31:45;;;;;;;28.88;16.33;;;;;;;;;;5026244;28;20108;-78
2022/11/10 06:34:11;;;;;;;31.50;16.02;;;;;;;;;;5033921;28;20026;-79
2022/11/10 06:36:38;;;;;;;32.75;17.88;;;;;;;;;;5033401;28;20029;-78
2022/11/10 06:39:03;;;;;;;32.33;16.60;;;;;;;;;;5033100;28;20079;-78
2022/11/10 06:41:29;;;;;;;30.40;15.43;;;;;;;;;;5029004;28;20085;-79
2022/11/10 06:43:55;;;;;;;30.83;16.00;;;;;;;;;;5017921;28;20419;-77
2022/11/10 06:46:20;;;;;;;31.55;16.67;;;;;;;;;;5020397;28;20033;-76
2022/11/10 06:48:46;;;;;;;36.63;18.75;;;;;;;;;;5029716;28;20049;-78
2022/11/10 06:51:11;;;;;;;29.60;16.08;;;;;;;;;;5030427;28;20025;-78
2022/11/10 06:53:37;;;;;;;29.63;16.10;;;;;;;;;;5033380;28;20029;-76
2022/11/10 06:56:02;;;;;;;28.92;16.35;;;;;;;;;;5032668;28;20187;-78
2022/11/10 06:58:28;;;;;;;29.08;16.70;;;;;;;;;;5032456;28;20481;-78
2022/11/10 07:00:54;;;;;;;27.35;15.93;;;;;;;;;;5031728;28;20039;-78
2022/11/10 07:03:19;;;;;;;33.43;18.23;;;;;;;;;;5019353;28;20528;-79
2022/11/10 07:05:45;;;;;;;27.10;15.60;;;;;;;;;;5033468;28;20022;-79
2022/11/10 07:08:14;;;;;;;34.72;17.95;;;;;;;;;;5033523;28;20079;-78
2022/11/10 07:10:42;;;;;;;31.35;16.45;;;;;;;;;;5025724;28;20137;-78
2022/11/10 07:13:09;;;;;;;29.67;17.17;;;;;;;;;;5004558;28;20378;-77
2022/11/10 07:15:35;;;;;;;32.47;16.13;;;;;;;;;;5020439;28;20031;-77
2022/11/10 07:21:02;;;;;;;29.13;15.30;;;;;;;;;;5011589;28;20051;-78
2022/11/10 07:23:28;;;;;;;30.10;15.68;;;;;;;;;;5017961;28;20496;-77
2022/11/10 07:25:53;;;;;;;28.02;16.67;;;;;;;;;;5025321;28;20071;-78
2022/11/10 07:28:19;;;;;;;28.83;16.17;;;;;;;;;;5016423;28;20479;-77
2022/11/10 07:30:44;;;;;;;33.65;17.33;;;;;;;;;;5006041;28;20416;-77
2022/11/10 07:33:20;;;;;;;31.90;16.98;;;;;;;;;;5014524;28;20060;-77
2022/11/10 07:35:54;;;;;;;32.13;17.30;;;;;;;;;;5022117;28;20107;-78
2022/11/10 07:38:21;;;;;;;31.75;17.08;;;;;;;;;;5028562;28;20033;-77
2022/11/10 07:40:51;;;;;;;26.90;16.95;;;;;;;;;;5014173;28;20050;-75
2022/11/10 07:43:16;;;;;;;32.22;16.88;;;;;;;;;;5013949;28;20115;-78
2022/11/10 07:45:41;;;;;;;27.85;16.33;;;;;;;;;;5010175;28;20025;-77
2022/11/10 07:48:09;;;;;;;30.35;15.88;;;;;;;;;;5008093;28;20096;-77
2022/11/10 07:50:34;;;;;;;31.30;16.92;;;;;;;;;;5002588;28;20026;-78
2022/11/10 07:53:14;;;;;;;29.67;15.65;;;;;;;;;;5010364;28;20426;-77
2022/11/10 07:55:43;;;;;;;27.10;14.20;;;;;;;;;;5008706;28;20026;-77
2022/11/10 07:58:14;;;;;;;30.67;15.40;;;;;;;;;;5022195;28;20072;-77
2022/11/10 08:00:41;;;;;;;27.02;14.55;;;;;;;;;;5022139;28;20433;-77
2022/11/10 08:03:11;;;;;;;19.83;12.90;;;;;;;;;;5042576;28;20939;-78
2022/11/10 08:05:37;;;;;;;22.85;13.20;;;;;;;;;;5007207;28;20025;-80
2022/11/10 08:08:03;;;;;;;20.08;11.63;;;;;;;;;;5012526;28;20029;-77
2022/11/10 08:10:29;;;;;;;25.10;13.32;;;;;;;;;;5013269;28;20111;-78
2022/11/10 08:12:57;;;;;;;23.17;15.63;;;;;;;;;;5010453;28;20060;-77
2022/11/10 08:15:24;;;;;;;20.52;11.45;;;;;;;;;;5010403;28;20081;-78
2022/11/10 08:17:49;;;;;;;20.67;12.55;;;;;;;;;;5020914;28;20112;-78
2022/11/10 08:20:16;;;;;;;24.25;13.45;;;;;;;;;;4993460;28;20125;-78
2022/11/10 08:22:42;;;;;;;19.05;12.00;;;;;;;;;;5026588;28;20068;-77
2022/11/10 08:25:07;;;;;;;21.67;9.70;;;;;;;;;;5026910;28;20450;-78
2022/11/10 08:27:33;;;;;;;11.30;6.65;;;;;;;;;;5012011;28;20128;-77
2022/11/10 08:29:58;;;;;;;12.73;6.72;;;;;;;;;;5014895;28;20041;-79
2022/11/10 08:32:24;;;;;;;11.50;5.40;;;;;;;;;;5009087;28;20065;-77
2022/11/10 08:34:50;;;;;;;10.55;5.05;;;;;;;;;;5014975;28;20033;-79
2022/11/10 08:37:16;;;;;;;9.35;4.43;;;;;;;;;;5012260;28;20032;-77
2022/11/10 08:39:41;;;;;;;9.23;5.22;;;;;;;;;;5021179;28;20136;-76
2022/11/10 08:42:06;;;;;;;6.40;4.10;;;;;;;;;;5011203;28;20092;-77
2022/11/10 08:44:32;;;;;;;8.52;3.88;;;;;;;;;;5014197;28;20033;-78
2022/11/10 08:46:57;;;;;;;8.30;3.38;;;;;;;;;;5009253;28;20025;-77
2022/11/10 08:49:23;;;;;;;9.88;3.90;;;;;;;;;;5006284;28;20030;-78
2022/11/10 08:51:54;;;;;;;4.78;3.53;;;;;;;;;;5007493;28;20068;-78
2022/11/10 08:54:19;;;;;;;8.05;4.03;;;;;;;;;;5021591;28;20544;-78
2022/11/10 08:56:44;;;;;;;7.50;3.42;;;;;;;;;;5010930;28;20026;-77
2022/11/10 08:59:10;;;;;;;5.13;3.30;;;;;;;;;;5009482;28;20078;-77
2022/11/10 09:01:36;;;;;;;5.20;3.13;;;;;;;;;;5016009;28;20091;-80
2022/11/10 09:04:01;;;;;;;7.38;3.38;;;;;;;;;;5031748;28;20032;-78
2022/11/10 09:06:27;;;;;;;5.43;2.60;;;;;;;;;;5005588;28;20041;-79
2022/11/10 09:08:52;;;;;;;7.32;2.88;;;;;;;;;;4998771;28;20030;-80
2022/11/10 09:11:21;;;;;;;5.30;3.65;;;;;;;;;;5017338;28;20040;-79
2022/11/10 09:13:46;;;;;;;3.78;2.78;;;;;;;;;;5021808;28;20026;-77
2022/11/10 09:16:12;;;;;;;7.35;2.05;;;;;;;;;;5011084;28;20025;-79
2022/11/10 09:18:38;;;;;;;4.20;2.35;;;;;;;;;;5013071;28;20034;-77
2022/11/10 09:21:10;;;;;;;3.90;2.00;;;;;;;;;;5008786;28;20025;-80
2022/11/10 09:23:36;;;;;;;4.90;1.95;;;;;;;;;;5010481;28;20029;-77
2022/11/10 09:26:04;;;;;;;4.53;2.13;;;;;;;;;;5008243;28;20066;-78
2022/11/10 09:28:30;;;;;;;6.00;2.22;;;;;;;;;;5012275;28;20065;-78
2022/11/10 09:30:55;;;;;;;12.18;2.83;;;;;;;;;;5014756;28;20022;-77
2022/11/10 09:33:21;;;;;;;9.80;2.20;;;;;;;;;;5010821;28;20030;-76
2022/11/10 09:35:47;;;;;;;3.05;1.73;;;;;;;;;;5010937;28;20049;-78
2022/11/10 09:38:13;;;;;;;5.82;1.88;;;;;;;;;;5022625;28;20033;-78
2022/11/10 09:41:03;;;;;;;7.18;2.08;;;;;;;;;;5012082;28;20454;-79
2022/11/10 09:43:57;;;;;;;3.47;1.52;;;;;;;;;;4996685;28;20033;-78
2022/11/10 09:46:26;;;;;;;6.63;2.30;;;;;;;;;;5001219;28;20101;-76
2022/11/10 09:49:02;;;;;;;4.95;2.50;;;;;;;;;;5016868;28;20053;-77
2022/11/10 09:51:36;;;;;;;10.02;2.47;;;;;;;;;;5001980;28;20021;-78
2022/11/10 09:54:01;;;;;;;14.60;4.95;;;;;;;;;;5012309;28;20049;-76
2022/11/10 09:56:31;;;;;;;8.25;2.45;;;;;;;;;;5003910;28;20061;-79
2022/11/10 09:58:57;;;;;;;4.78;2.38;;;;;;;;;;5022270;28;20121;-78
2022/11/10 10:01:36;;;;;;;7.72;2.40;;;;;;;;;;5007402;28;20418;-77
2022/11/10 10:04:11;;;;;;;7.85;2.60;;;;;;;;;;5010066;28;20030;-79
2022/11/10 10:06:56;;;;;;;4.78;2.45;;;;;;;;;;5009067;28;20026;-78
2022/11/10 10:09:35;;;;;;;13.25;3.13;;;;;;;;;;5007519;28;20042;-79
2022/11/10 10:12:42;;;;;;;10.70;2.20;;;;;;;;;;5023656;28;20435;-77
2022/11/10 10:15:20;;;;;;;10.05;2.55;;;;;;;;;;5009959;28;20425;-75
2022/11/10 10:18:22;;;;;;;5.03;2.28;;;;;;;;;;5018349;28;20665;-77
2022/11/10 10:20:53;;;;;;;9.10;2.50;;;;;;;;;;5011745;28;20530;-76
2022/11/10 10:23:26;;;;;;;8.13;1.90;;;;;;;;;;5010238;28;20034;-77
2022/11/10 10:25:52;;;;;;;9.27;2.20;;;;;;;;;;5013468;28;20037;-78
2022/11/10 10:28:43;;;;;;;10.65;2.42;;;;;;;;;;5014292;28;20085;-77
2022/11/10 10:31:24;;;;;;;9.48;2.28;;;;;;;;;;5008653;28;20038;-79
2022/11/10 10:33:51;;;;;;;5.55;2.10;;;;;;;;;;5016577;28;20038;-78
2022/11/10 10:36:35;;;;;;;4.70;2.00;;;;;;;;;;5020432;28;20064;-77
2022/11/10 10:39:12;;;;;;;7.50;2.85;;;;;;;;;;5018174;28;20377;-76
2022/11/10 10:41:39;;;;;;;4.82;2.63;;;;;;;;;;5018345;28;20076;-78
2022/11/10 10:44:11;;;;;;;4.53;1.83;;;;;;;;;;5016794;28;20034;-77
2022/11/10 10:46:55;;;;;;;4.32;1.65;;;;;;;;;;5018984;28;20026;-76
2022/11/10 10:49:27;;;;;;;4.85;1.80;;;;;;;;;;5012104;28;20037;-77
2022/11/10 10:52:05;;;;;;;7.75;1.92;;;;;;;;;;5006602;28;20038;-77
2022/11/10 10:54:36;;;;;;;5.75;2.00;;;;;;;;;;5018350;28;20034;-78
2022/11/10 10:57:22;;;;;;;5.32;2.05;;;;;;;;;;5012638;28;20204;-78
2022/11/10 10:59:48;;;;;;;6.40;1.75;;;;;;;;;;5011129;28;20053;-77
2022/11/10 11:02:28;;;;;;;6.63;2.05;;;;;;;;;;5011195;28;20696;-77
2022/11/10 11:05:19;;;;;;;5.10;2.10;;;;;;;;;;5022631;28;20041;-77
2022/11/10 11:07:59;;;;;;;8.18;1.88;;;;;;;;;;5007783;28;20115;-80
2022/11/10 11:10:29;;;;;;;4.28;1.45;;;;;;;;;;5011843;28;20040;-78
2022/11/10 11:13:12;;;;;;;3.45;1.10;;;;;;;;;;5004761;28;20064;-78
2022/11/10 11:15:38;;;;;;;2.80;1.88;;;;;;;;;;5011094;28;20580;-79
2022/11/10 11:18:13;;;;;;;5.00;1.90;;;;;;;;;;5015170;28;20060;-76
2022/11/10 11:20:48;;;;;;;7.75;1.77;;;;;;;;;;5011259;28;20038;-77
2022/11/10 11:23:28;;;;;;;7.75;1.80;;;;;;;;;;5014830;28;20044;-78
2022/11/10 11:26:05;;;;;;;6.40;1.63;;;;;;;;;;5027978;28;20040;-76
2022/11/10 11:28:50;;;;;;;5.03;1.77;;;;;;;;;;5027969;28;20091;-77
2022/11/10 11:31:39;;;;;;;4.60;1.80;;;;;;;;;;5011957;28;20030;-81
2022/11/10 11:34:29;;;;;;;6.22;1.80;;;;;;;;;;5003079;28;20500;-79
2022/11/10 11:37:35;;;;;;;4.18;1.42;;;;;;;;;;5005909;28;20026;-78
2022/11/10 11:40:15;;;;;;;7.70;2.55;;;;;;;;;;5005915;28;20140;-77
2022/11/10 11:43:16;;;;;;;9.60;2.78;;;;;;;;;;5022745;28;20029;-76
2022/11/10 11:46:03;;;;;;;2.55;1.17;;;;;;;;;;5007237;28;20045;-78
2022/11/10 11:48:46;;;;;;;6.97;1.60;;;;;;;;;;5018759;28;20521;-77
2022/11/10 11:51:39;;;;;;;4.32;1.45;;;;;;;;;;5001384;28;20857;-76
2022/11/10 11:54:33;;;;;;;7.05;1.40;;;;;;;;;;5014091;28;20037;-77
2022/11/10 11:57:16;;;;;;;5.97;1.40;;;;;;;;;;5023309;28;20025;-78
2022/11/10 12:00:17;;;;;;;5.30;1.60;;;;;;;;;;5020001;28;20246;-77
2022/11/10 12:03:01;;;;;;;6.78;2.15;;;;;;;;;;5002659;28;20046;-78
2022/11/10 12:05:45;;;;;;;7.07;1.83;;;;;;;;;;5006662;28;20120;-78
2022/11/10 12:08:37;;;;;;;5.70;1.42;;;;;;;;;;5004592;28;20030;-78
2022/11/10 12:11:26;;;;;;;8.07;1.45;;;;;;;;;;5024406;28;20042;-77
2022/11/10 12:13:59;;;;;;;5.18;1.40;;;;;;;;;;5030867;28;20029;-78
2022/11/10 12:16:30;;;;;;;4.38;2.05;;;;;;;;;;5015631;28;20062;-78
2022/11/10 12:19:18;;;;;;;8.57;1.90;;;;;;;;;;5021262;28;20083;-77
2022/11/10 12:21:59;;;;;;;5.43;1.92;;;;;;;;;;5020610;28;20033;-77
2022/11/10 12:24:43;;;;;;;10.95;2.15;;;;;;;;;;5015488;28;20053;-77
2022/11/10 12:27:09;;;;;;;10.27;2.25;;;;;;;;;;5022462;28;20036;-78
2022/11/10 12:29:47;;;;;;;3.35;1.58;;;;;;;;;;5018269;28;20029;-76
2022/11/10 12:32:38;;;;;;;2.55;1.60;;;;;;;;;;5019049;28;20040;-78
2022/11/10 12:35:13;;;;;;;4.10;1.53;;;;;;;;;;4992305;28;20156;-75
2022/11/10 12:37:45;;;;;;;3.85;1.55;;;;;;;;;;5017588;28;20139;-78
2022/11/10 12:40:20;;;;;;;3.55;1.85;;;;;;;;;;5019354;28;20112;-77
2022/11/10 12:42:54;;;;;;;12.32;1.70;;;;;;;;;;5023510;28;20037;-76
2022/11/10 12:45:23;;;;;;;7.03;1.42;;;;;;;;;;5028324;28;20029;-78
2022/11/10 12:47:49;;;;;;;3.72;1.85;;;;;;;;;;5019010;28;20032;-78
2022/11/10 12:50:14;;;;;;;4.50;1.85;;;;;;;;;;5010224;28;20025;-76
2022/11/10 12:53:06;;;;;;;2.17;1.42;;;;;;;;;;5011772;28;20430;-76
2022/11/10 12:55:39;;;;;;;6.15;1.33;;;;;;;;;;5020878;28;20343;-78
2022/11/10 12:58:06;;;;;;;7.25;1.33;;;;;;;;;;5006854;28;20096;-78
2022/11/10 13:00:39;;;;;;;3.95;1.50;;;;;;;;;;5000436;28;20070;-77
2022/11/10 13:03:15;;;;;;;3.30;1.50;;;;;;;;;;5006716;28;20021;-76
2022/11/10 13:05:44;;;;;;;4.85;1.73;;;;;;;;;;5008488;28;20040;-79
2022/11/10 13:08:26;;;;;;;6.40;1.90;;;;;;;;;;4989483;28;20081;-78
2022/11/10 13:11:14;;;;;;;;;;;;;;;;;;5004063;28;20132;-76
2022/11/10 13:13:50;;;;;;;4.28;1.42;;;;;;;;;;5003988;28;20051;-80
2022/11/10 13:16:37;;;;;;;2.42;1.50;;;;;;;;;;5021293;28;20033;-75
2022/11/10 13:19:04;;;;;;;10.55;2.08;;;;;;;;;;5004237;28;20021;-79
2022/11/10 13:21:51;;;;;;;2.97;1.45;;;;;;;;;;5004459;28;20421;-79
2022/11/10 13:24:24;;;;;;;4.05;2.03;;;;;;;;;;5008047;28;20108;-78
2022/11/10 13:26:59;;;;;;;5.57;1.35;;;;;;;;;;5007678;28;20501;-77
2022/11/10 13:29:42;;;;;;;3.13;1.35;;;;;;;;;;5002616;28;20156;-77
2022/11/10 13:32:14;;;;;;;3.30;1.48;;;;;;;;;;5003735;28;20498;-78
2022/11/10 13:34:40;;;;;;;3.05;1.67;;;;;;;;;;5004465;28;20351;-76
2022/11/10 13:37:28;;;;;;;2.30;1.20;;;;;;;;;;5005750;28;20073;-77
2022/11/10 13:40:16;;;;;;;4.50;1.50;;;;;;;;;;5004091;28;20505;-77
2022/11/10 13:42:43;;;;;;;6.18;1.70;;;;;;;;;;5008097;28;20116;-79
2022/11/10 13:45:40;;;;;;;5.68;1.40;;;;;;;;;;5006041;28;20056;-78
2022/11/10 13:48:44;;;;;;;3.72;1.40;;;;;;;;;;5008526;28;20049;-79
2022/11/10 13:51:37;;;;;;;7.13;1.50;;;;;;;;;;5003588;28;20026;-76
2022/11/10 13:54:23;;;;;;;5.25;1.88;;;;;;;;;;5004993;28;20030;-79
2022/11/10 13:57:35;;;;;;;3.97;1.58;;;;;;;;;;5022610;28;20033;-76
2022/11/10 14:00:06;;;;;;;4.57;1.13;;;;;;;;;;4989501;28;20057;-77
2022/11/10 14:02:38;;;;;;;5.93;1.35;;;;;;;;;;5006515;28;20119;-76
2022/11/10 14:05:27;;;;;;;3.47;1.70;;;;;;;;;;5009852;28;20045;-76
2022/11/10 14:08:01;;;;;;;6.75;1.58;;;;;;;;;;4988224;28;20398;-78
2022/11/10 14:10:44;;;;;;;6.43;1.73;;;;;;;;;;5006625;28;20950;-76
2022/11/10 14:13:41;;;;;;;6.78;1.50;;;;;;;;;;5010029;28;20029;-78
2022/11/10 14:16:31;;;;;;;7.53;1.45;;;;;;;;;;5011259;28;20401;-79
2022/11/10 14:19:14;;;;;;;7.68;4.10;;;;;;;;;;5011190;28;20030;-78
2022/11/10 14:21:46;;;;;;;3.55;1.27;;;;;;;;;;5003416;28;20431;-78
2022/11/10 14:24:32;;;;;;;4.55;1.33;;;;;;;;;;5007400;28;20327;-78
2022/11/10 14:27:03;;;;;;;6.70;1.67;;;;;;;;;;5009629;28;20017;-78
2022/11/10 14:29:38;;;;;;;5.30;2.13;;;;;;;;;;5004999;28;20057;-78
2022/11/10 14:32:25;;;;;;;3.90;2.15;;;;;;;;;;5009151;28;20125;-76
2022/11/10 14:34:53;;;;;;;6.70;1.58;;;;;;;;;;5007526;28;20076;-78
2022/11/10 14:37:27;;;;;;;5.00;1.67;;;;;;;;;;5008921;28;20037;-77
2022/11/10 14:39:55;;;;;;;6.75;2.75;;;;;;;;;;5010561;28;20053;-76
2022/11/10 14:42:29;;;;;;;9.50;1.90;;;;;;;;;;5009883;28;20049;-77
2022/11/10 14:45:05;;;;;;;17.40;3.17;;;;;;;;;;5010793;28;20530;-76
2022/11/10 14:47:31;;;;;;;14.45;2.78;;;;;;;;;;5010560;28;20034;-78
2022/11/10 14:50:27;;;;;;;7.63;2.45;;;;;;;;;;5006241;28;20044;-77
2022/11/10 14:52:56;;;;;;;6.38;1.98;;;;;;;;;;5009973;28;20430;-78
2022/11/10 14:55:28;;;;;;;6.13;2.30;;;;;;;;;;5009940;28;20044;-79
2022/11/10 14:58:22;;;;;;;5.63;2.00;;;;;;;;;;5006935;28;20204;-76
2022/11/10 15:00:48;;;;;;;6.47;2.00;;;;;;;;;;5003183;28;20092;-76
2022/11/10 15:03:22;;;;;;;10.27;3.78;;;;;;;;;;5008508;28;20036;-79
2022/11/10 15:05:49;;;;;;;5.60;1.80;;;;;;;;;;5006632;28;20296;-76
2022/11/10 15:08:15;;;;;;;8.38;2.28;;;;;;;;;;5007885;28;20033;-79
2022/11/10 15:10:44;;;;;;;5.47;2.33;;;;;;;;;;5013656;28;20025;-79